sensor_id;sensor_type;location;lat;lon;timestamp;pressure;altitude;pressure_sealevel;temperature;humidity
45285;BME280;31026;43.780;25.948;2023-07-13T00:00:12;100733.69;;;23.08;67.59
45285;BME280;31026;43.780;25.948;2023-07-13T00:02:44;100725.13;;;23.12;66.22
45285;BME280;31026;43.780;25.948;2023-07-13T00:05:12;100721.91;;;23.09;65.57
45285;BME280;31026;43.780;25.948;2023-07-13T00:07:41;100735.72;;;23.14;66.14
45285;BME280;31026;43.780;25.948;2023-07-13T00:10:11;100720.22;;;23.08;66.28
45285;BME280;31026;43.780;25.948;2023-07-13T00:12:40;100735.34;;;23.00;66.32
45285;BME280;31026;43.780;25.948;2023-07-13T00:15:10;100715.44;;;23.01;66.10
45285;BME280;31026;43.780;25.948;2023-07-13T00:17:44;100725.72;;;22.98;66.25
45285;BME280;31026;43.780;25.948;2023-07-13T00:20:12;100708.38;;;23.00;66.21
45285;BME280;31026;43.780;25.948;2023-07-13T00:22:40;100715.16;;;23.05;66.37
45285;BME280;31026;43.780;25.948;2023-07-13T00:25:10;100715.16;;;23.05;66.72
45285;BME280;31026;43.780;25.948;2023-07-13T00:27:38;100718.00;;;23.03;66.88
45285;BME280;31026;43.780;25.948;2023-07-13T00:30:07;100699.13;;;23.03;66.99
45285;BME280;31026;43.780;25.948;2023-07-13T00:32:35;100708.06;;;23.03;67.11
45285;BME280;31026;43.780;25.948;2023-07-13T00:35:07;100702.00;;;23.10;66.95
45285;BME280;31026;43.780;25.948;2023-07-13T00:37:35;100715.84;;;23.15;67.06
45285;BME280;31026;43.780;25.948;2023-07-13T00:40:04;100700.84;;;23.12;65.35
45285;BME280;31026;43.780;25.948;2023-07-13T00:42:33;100688.72;;;23.08;65.09
45285;BME280;31026;43.780;25.948;2023-07-13T00:45:03;100700.66;;;23.06;65.63
45285;BME280;31026;43.780;25.948;2023-07-13T00:47:32;100707.31;;;22.93;66.07
45285;BME280;31026;43.780;25.948;2023-07-13T00:50:00;100696.38;;;22.95;66.09
45285;BME280;31026;43.780;25.948;2023-07-13T00:52:33;100697.88;;;22.89;66.52
45285;BME280;31026;43.780;25.948;2023-07-13T00:55:03;100694.47;;;22.79;66.78
45285;BME280;31026;43.780;25.948;2023-07-13T00:57:32;100699.84;;;22.79;66.40
45285;BME280;31026;43.780;25.948;2023-07-13T01:00:03;100699.84;;;22.71;66.59
45285;BME280;31026;43.780;25.948;2023-07-13T01:02:34;100704.94;;;22.82;66.36
45285;BME280;31026;43.780;25.948;2023-07-13T01:05:07;100697.84;;;22.81;66.78
45285;BME280;31026;43.780;25.948;2023-07-13T01:07:39;100707.44;;;22.83;66.78
45285;BME280;31026;43.780;25.948;2023-07-13T01:10:09;100698.25;;;22.94;66.82
45285;BME280;31026;43.780;25.948;2023-07-13T01:12:37;100689.66;;;22.99;68.32
45285;BME280;31026;43.780;25.948;2023-07-13T01:15:32;100695.50;;;23.29;67.60
45285;BME280;31026;43.780;25.948;2023-07-13T01:17:54;100697.38;;;23.61;66.85
45285;BME280;31026;43.780;25.948;2023-07-13T01:20:23;100690.47;;;23.75;66.83
45285;BME280;31026;43.780;25.948;2023-07-13T01:22:54;100672.09;;;23.95;65.96
45285;BME280;31026;43.780;25.948;2023-07-13T01:25:24;100672.09;;;23.95;66.46
45285;BME280;31026;43.780;25.948;2023-07-13T01:27:53;100688.66;;;24.00;66.25
45285;BME280;31026;43.780;25.948;2023-07-13T01:30:21;100679.84;;;24.14;65.80
45285;BME280;31026;43.780;25.948;2023-07-13T01:32:49;100677.81;;;24.08;65.98
45285;BME280;31026;43.780;25.948;2023-07-13T01:35:18;100683.28;;;23.84;67.15
45285;BME280;31026;43.780;25.948;2023-07-13T01:37:46;100692.03;;;24.02;66.90
45285;BME280;31026;43.780;25.948;2023-07-13T01:40:17;100689.31;;;24.10;66.30
45285;BME280;31026;43.780;25.948;2023-07-13T01:42:45;100681.03;;;24.20;66.29
45285;BME280;31026;43.780;25.948;2023-07-13T01:45:14;100686.25;;;24.21;66.11
45285;BME280;31026;43.780;25.948;2023-07-13T01:47:42;100679.50;;;24.26;66.05
45285;BME280;31026;43.780;25.948;2023-07-13T01:50:10;100677.09;;;24.31;65.78
45285;BME280;31026;43.780;25.948;2023-07-13T01:52:39;100694.84;;;24.17;66.39
45285;BME280;31026;43.780;25.948;2023-07-13T01:55:07;100685.91;;;24.25;66.05
45285;BME280;31026;43.780;25.948;2023-07-13T01:57:38;100685.91;;;24.25;66.18
45285;BME280;31026;43.780;25.948;2023-07-13T02:00:08;100697.41;;;24.10;66.44
45285;BME280;31026;43.780;25.948;2023-07-13T02:02:36;100690.59;;;24.31;66.12
45285;BME280;31026;43.780;25.948;2023-07-13T02:05:05;100698.22;;;24.27;66.07
45285;BME280;31026;43.780;25.948;2023-07-13T02:07:34;100698.59;;;24.16;66.46
45285;BME280;31026;43.780;25.948;2023-07-13T02:10:02;100695.03;;;24.24;66.47
45285;BME280;31026;43.780;25.948;2023-07-13T02:12:30;100690.47;;;24.24;66.59
45285;BME280;31026;43.780;25.948;2023-07-13T02:15:01;100692.63;;;24.29;66.63
45285;BME280;31026;43.780;25.948;2023-07-13T02:17:30;100692.34;;;23.99;67.14
45285;BME280;31026;43.780;25.948;2023-07-13T02:19:59;100691.00;;;24.03;66.45
45285;BME280;31026;43.780;25.948;2023-07-13T02:22:27;100692.88;;;23.94;66.92
45285;BME280;31026;43.780;25.948;2023-07-13T02:24:56;100696.06;;;24.14;66.80
45285;BME280;31026;43.780;25.948;2023-07-13T02:27:24;100692.50;;;24.22;66.43
45285;BME280;31026;43.780;25.948;2023-07-13T02:29:52;100694.38;;;24.13;66.14
45285;BME280;31026;43.780;25.948;2023-07-13T02:32:23;100688.47;;;24.10;66.00
45285;BME280;31026;43.780;25.948;2023-07-13T02:34:52;100699.41;;;24.16;65.50
45285;BME280;31026;43.780;25.948;2023-07-13T02:37:21;100685.25;;;24.14;65.66
45285;BME280;31026;43.780;25.948;2023-07-13T02:39:49;100701.41;;;24.31;65.38
45285;BME280;31026;43.780;25.948;2023-07-13T02:42:17;100703.78;;;24.34;65.40
45285;BME280;31026;43.780;25.948;2023-07-13T02:44:45;100688.97;;;24.21;66.71
45285;BME280;31026;43.780;25.948;2023-07-13T02:47:14;100701.28;;;23.91;67.43
45285;BME280;31026;43.780;25.948;2023-07-13T02:49:45;100704.88;;;23.84;67.25
45285;BME280;31026;43.780;25.948;2023-07-13T02:52:14;100700.78;;;23.79;67.25
45285;BME280;31026;43.780;25.948;2023-07-13T02:54:42;100710.75;;;23.79;67.28
45285;BME280;31026;43.780;25.948;2023-07-13T02:57:10;100696.94;;;23.90;66.88
45285;BME280;31026;43.780;25.948;2023-07-13T02:59:38;100680.56;;;23.92;66.76
45285;BME280;31026;43.780;25.948;2023-07-13T03:02:07;100689.31;;;24.10;66.17
45285;BME280;31026;43.780;25.948;2023-07-13T03:04:35;100692.00;;;24.18;65.74
45285;BME280;31026;43.780;25.948;2023-07-13T03:07:07;100698.09;;;24.12;65.89
45285;BME280;31026;43.780;25.948;2023-07-13T03:09:35;100683.56;;;24.13;65.78
45285;BME280;31026;43.780;25.948;2023-07-13T03:12:04;100685.75;;;23.93;66.05
45285;BME280;31026;43.780;25.948;2023-07-13T03:14:33;100686.47;;;24.04;65.62
45285;BME280;31026;43.780;25.948;2023-07-13T03:17:01;100698.78;;;23.98;66.16
45285;BME280;31026;43.780;25.948;2023-07-13T03:19:29;100694.22;;;23.90;66.21
45285;BME280;31026;43.780;25.948;2023-07-13T03:21:57;100674.66;;;23.88;66.08
45285;BME280;31026;43.780;25.948;2023-07-13T03:24:28;100691.69;;;23.89;66.22
45285;BME280;31026;43.780;25.948;2023-07-13T03:26:57;100685.44;;;23.96;65.82
45285;BME280;31026;43.780;25.948;2023-07-13T03:29:25;100702.84;;;23.94;66.08
45285;BME280;31026;43.780;25.948;2023-07-13T03:31:53;100697.06;;;24.05;65.97
45285;BME280;31026;43.780;25.948;2023-07-13T03:34:21;100684.94;;;23.85;66.71
45285;BME280;31026;43.780;25.948;2023-07-13T03:36:50;100701.28;;;23.75;67.26
45285;BME280;31026;43.780;25.948;2023-07-13T03:39:18;100695.72;;;23.68;67.59
45285;BME280;31026;43.780;25.948;2023-07-13T03:41:49;100706.00;;;23.65;67.56
45285;BME280;31026;43.780;25.948;2023-07-13T03:44:18;100696.72;;;23.75;67.14
45285;BME280;31026;43.780;25.948;2023-07-13T03:46:46;100688.28;;;23.70;67.45
45285;BME280;31026;43.780;25.948;2023-07-13T03:49:14;100688.81;;;23.66;67.51
45285;BME280;31026;43.780;25.948;2023-07-13T03:51:43;100697.75;;;23.66;67.75
45285;BME280;31026;43.780;25.948;2023-07-13T03:54:11;100708.03;;;23.71;67.59
45285;BME280;31026;43.780;25.948;2023-07-13T03:56:39;100686.63;;;23.77;67.31
45285;BME280;31026;43.780;25.948;2023-07-13T03:59:10;100706.53;;;23.85;67.21
45285;BME280;31026;43.780;25.948;2023-07-13T04:01:39;100701.50;;;23.81;67.32
45285;BME280;31026;43.780;25.948;2023-07-13T04:04:07;100691.03;;;23.78;67.38
45285;BME280;31026;43.780;25.948;2023-07-13T04:06:35;100692.88;;;23.94;67.00
45285;BME280;31026;43.780;25.948;2023-07-13T04:09:03;100692.16;;;24.09;66.51
45285;BME280;31026;43.780;25.948;2023-07-13T04:11:34;100691.34;;;24.00;66.73
45285;BME280;31026;43.780;25.948;2023-07-13T04:14:03;100697.44;;;24.02;66.74
45285;BME280;31026;43.780;25.948;2023-07-13T04:16:34;100695.91;;;24.08;66.77
45285;BME280;31026;43.780;25.948;2023-07-13T04:19:02;100701.47;;;24.14;66.53
45285;BME280;31026;43.780;25.948;2023-07-13T04:21:31;100652.22;;;23.88;66.55
45285;BME280;31026;43.780;25.948;2023-07-13T04:23:59;100702.81;;;24.10;66.81
45285;BME280;31026;43.780;25.948;2023-07-13T04:26:28;100696.06;;;24.14;66.77
45285;BME280;31026;43.780;25.948;2023-07-13T04:28:56;100710.88;;;24.27;66.29
45285;BME280;31026;43.780;25.948;2023-07-13T04:31:25;100705.31;;;24.28;66.24
45285;BME280;31026;43.780;25.948;2023-07-13T04:33:56;100714.41;;;24.52;65.66
45285;BME280;31026;43.780;25.948;2023-07-13T04:36:25;100715.41;;;24.51;66.28
45285;BME280;31026;43.780;25.948;2023-07-13T04:38:53;100715.94;;;24.38;67.00
45285;BME280;31026;43.780;25.948;2023-07-13T04:41:21;100709.16;;;24.42;67.08
45285;BME280;31026;43.780;25.948;2023-07-13T04:43:50;100705.66;;;24.33;67.29
45285;BME280;31026;43.780;25.948;2023-07-13T04:46:18;100743.94;;;24.45;66.94
45285;BME280;31026;43.780;25.948;2023-07-13T04:48:48;100718.31;;;24.25;67.40
45285;BME280;31026;43.780;25.948;2023-07-13T04:51:21;100742.31;;;24.36;67.30
45285;BME280;31026;43.780;25.948;2023-07-13T04:53:49;100727.28;;;24.17;67.66
45285;BME280;31026;43.780;25.948;2023-07-13T04:56:17;100725.06;;;24.29;67.46
45285;BME280;31026;43.780;25.948;2023-07-13T04:58:45;100726.59;;;24.31;67.42
45285;BME280;31026;43.780;25.948;2023-07-13T05:01:14;100723.38;;;24.36;67.14
45285;BME280;31026;43.780;25.948;2023-07-13T05:03:42;100723.22;;;24.37;67.12
45285;BME280;31026;43.780;25.948;2023-07-13T05:06:10;100715.56;;;24.41;67.18
45285;BME280;31026;43.780;25.948;2023-07-13T05:08:41;100725.75;;;24.55;66.92
45285;BME280;31026;43.780;25.948;2023-07-13T05:11:10;100733.81;;;24.64;66.48
45285;BME280;31026;43.780;25.948;2023-07-13T05:13:38;100731.13;;;24.64;66.46
45285;BME280;31026;43.780;25.948;2023-07-13T05:16:06;100721.59;;;24.76;66.48
45285;BME280;31026;43.780;25.948;2023-07-13T05:18:35;100737.50;;;24.71;66.42
45285;BME280;31026;43.780;25.948;2023-07-13T05:21:04;100729.06;;;24.66;66.79
45285;BME280;31026;43.780;25.948;2023-07-13T05:23:33;100721.28;;;24.71;66.59
45285;BME280;31026;43.780;25.948;2023-07-13T05:26:04;100731.38;;;24.77;66.13
45285;BME280;31026;43.780;25.948;2023-07-13T05:28:33;100723.97;;;24.79;66.23
45285;BME280;31026;43.780;25.948;2023-07-13T05:31:01;100726.69;;;24.79;66.40
45285;BME280;31026;43.780;25.948;2023-07-13T05:33:30;100740.88;;;24.81;66.61
45285;BME280;31026;43.780;25.948;2023-07-13T05:35:58;100719.06;;;24.74;66.56
45285;BME280;31026;43.780;25.948;2023-07-13T05:38:26;100730.06;;;24.73;66.88
45285;BME280;31026;43.780;25.948;2023-07-13T05:40:55;100730.72;;;24.75;66.66
45285;BME280;31026;43.780;25.948;2023-07-13T05:43:26;100729.06;;;24.74;66.67
45285;BME280;31026;43.780;25.948;2023-07-13T05:45:55;100740.69;;;24.74;66.73
45285;BME280;31026;43.780;25.948;2023-07-13T05:48:24;100746.09;;;24.74;66.96
45285;BME280;31026;43.780;25.948;2023-07-13T05:50:52;100732.41;;;24.76;66.87
45285;BME280;31026;43.780;25.948;2023-07-13T05:53:20;100733.09;;;24.78;67.00
45285;BME280;31026;43.780;25.948;2023-07-13T05:55:49;100738.34;;;25.11;65.75
45285;BME280;31026;43.780;25.948;2023-07-13T05:58:18;100728.44;;;25.03;66.07
45285;BME280;31026;43.780;25.948;2023-07-13T06:00:57;100739.47;;;24.93;66.65
45285;BME280;31026;43.780;25.948;2023-07-13T06:03:26;100734.84;;;25.02;66.38
45285;BME280;31026;43.780;25.948;2023-07-13T06:05:54;100731.22;;;25.18;66.16
45285;BME280;31026;43.780;25.948;2023-07-13T06:08:22;100728.66;;;25.33;65.64
45285;BME280;31026;43.780;25.948;2023-07-13T06:10:51;100730.25;;;25.42;65.60
45285;BME280;31026;43.780;25.948;2023-07-13T06:13:19;100741.69;;;25.29;65.59
45285;BME280;31026;43.780;25.948;2023-07-13T06:15:50;100753.25;;;25.15;66.13
45285;BME280;31026;43.780;25.948;2023-07-13T06:18:18;100755.28;;;25.13;66.55
45285;BME280;31026;43.780;25.948;2023-07-13T06:20:47;100776.44;;;25.09;66.80
45285;BME280;31026;43.780;25.948;2023-07-13T06:23:15;100751.03;;;25.10;67.08
45285;BME280;31026;43.780;25.948;2023-07-13T06:25:43;100758.03;;;25.36;66.22
45285;BME280;31026;43.780;25.948;2023-07-13T06:28:11;100745.63;;;25.50;65.65
45285;BME280;31026;43.780;25.948;2023-07-13T06:30:40;100745.78;;;25.48;65.52
45285;BME280;31026;43.780;25.948;2023-07-13T06:33:11;100744.72;;;25.26;65.92
45285;BME280;31026;43.780;25.948;2023-07-13T06:35:39;100743.31;;;25.38;66.47
45285;BME280;31026;43.780;25.948;2023-07-13T06:38:07;100740.84;;;25.52;66.16
45285;BME280;31026;43.780;25.948;2023-07-13T06:40:35;100752.84;;;25.57;65.71
45285;BME280;31026;43.780;25.948;2023-07-13T06:43:04;100750.75;;;25.45;65.99
45285;BME280;31026;43.780;25.948;2023-07-13T06:45:32;100745.94;;;25.24;66.90
45285;BME280;31026;43.780;25.948;2023-07-13T06:48:01;100739.59;;;25.39;66.23
45285;BME280;31026;43.780;25.948;2023-07-13T06:50:31;100736.97;;;25.23;67.04
45285;BME280;31026;43.780;25.948;2023-07-13T06:53:01;100726.81;;;25.25;66.38
45285;BME280;31026;43.780;25.948;2023-07-13T06:55:29;100729.00;;;25.30;66.27
45285;BME280;31026;43.780;25.948;2023-07-13T06:57:57;100735.91;;;25.32;67.60
45285;BME280;31026;43.780;25.948;2023-07-13T07:00:25;100742.41;;;25.23;68.82
45285;BME280;31026;43.780;25.948;2023-07-13T07:02:54;100740.31;;;25.33;68.18
45285;BME280;31026;43.780;25.948;2023-07-13T07:05:22;100746.56;;;25.34;67.53
45285;BME280;31026;43.780;25.948;2023-07-13T07:07:54;100737.16;;;25.22;69.08
45285;BME280;31026;43.780;25.948;2023-07-13T07:10:22;100741.22;;;25.17;68.70
45285;BME280;31026;43.780;25.948;2023-07-13T07:12:50;100721.09;;;25.12;69.05
45285;BME280;31026;43.780;25.948;2023-07-13T07:15:19;100732.97;;;25.02;70.16
45285;BME280;31026;43.780;25.948;2023-07-13T07:17:47;100730.91;;;25.13;67.04
45285;BME280;31026;43.780;25.948;2023-07-13T07:20:15;100736.00;;;25.08;67.77
45285;BME280;31026;43.780;25.948;2023-07-13T07:22:43;100731.34;;;24.93;68.41
45285;BME280;31026;43.780;25.948;2023-07-13T07:25:14;100722.22;;;24.86;68.58
45285;BME280;31026;43.780;25.948;2023-07-13T07:27:43;100730.31;;;24.94;67.85
45285;BME280;31026;43.780;25.948;2023-07-13T07:30:12;100719.53;;;24.86;68.59
45285;BME280;31026;43.780;25.948;2023-07-13T07:32:40;100712.03;;;24.96;66.27
45285;BME280;31026;43.780;25.948;2023-07-13T07:35:09;100728.69;;;24.85;68.61
45285;BME280;31026;43.780;25.948;2023-07-13T07:37:38;100718.53;;;24.87;68.53
45285;BME280;31026;43.780;25.948;2023-07-13T07:40:07;100724.59;;;24.89;68.03
45285;BME280;31026;43.780;25.948;2023-07-13T07:42:38;100719.78;;;25.08;67.03
45285;BME280;31026;43.780;25.948;2023-07-13T07:45:07;100709.91;;;25.23;67.38
45285;BME280;31026;43.780;25.948;2023-07-13T07:47:36;100728.72;;;25.08;69.01
45285;BME280;31026;43.780;25.948;2023-07-13T07:50:05;100719.91;;;25.14;68.96
45285;BME280;31026;43.780;25.948;2023-07-13T07:52:34;100728.75;;;24.60;70.80
45285;BME280;31026;43.780;25.948;2023-07-13T07:55:03;100710.75;;;24.12;69.13
45285;BME280;31026;43.780;25.948;2023-07-13T07:57:31;100739.63;;;23.87;67.44
45285;BME280;31026;43.780;25.948;2023-07-13T08:00:02;100722.41;;;23.79;65.79
45285;BME280;31026;43.780;25.948;2023-07-13T08:02:31;100734.72;;;23.90;64.33
45285;BME280;31026;43.780;25.948;2023-07-13T08:04:59;100730.16;;;23.91;64.35
45285;BME280;31026;43.780;25.948;2023-07-13T08:07:27;100732.53;;;23.94;64.31
45285;BME280;31026;43.780;25.948;2023-07-13T08:09:57;100717.69;;;23.90;64.17
45285;BME280;31026;43.780;25.948;2023-07-13T08:12:26;100734.34;;;23.69;64.37
45285;BME280;31026;43.780;25.948;2023-07-13T08:14:54;100723.41;;;23.78;64.27
45285;BME280;31026;43.780;25.948;2023-07-13T08:17:25;100721.41;;;23.80;65.59
45285;BME280;31026;43.780;25.948;2023-07-13T08:19:53;100735.72;;;23.89;66.25
45285;BME280;31026;43.780;25.948;2023-07-13T08:22:22;100735.41;;;23.84;67.02
45285;BME280;31026;43.780;25.948;2023-07-13T08:24:50;100738.78;;;23.94;67.65
45285;BME280;31026;43.780;25.948;2023-07-13T08:27:21;100739.59;;;23.70;66.14
45285;BME280;31026;43.780;25.948;2023-07-13T08:29:50;100751.34;;;23.36;64.00
45285;BME280;31026;43.780;25.948;2023-07-13T08:32:18;100733.38;;;23.11;62.15
45285;BME280;31026;43.780;25.948;2023-07-13T08:34:50;100732.09;;;22.89;60.99
45285;BME280;31026;43.780;25.948;2023-07-13T08:37:19;100728.75;;;22.60;59.78
45285;BME280;31026;43.780;25.948;2023-07-13T08:39:47;100734.22;;;22.42;58.73
45285;BME280;31026;43.780;25.948;2023-07-13T08:42:31;100731.25;;;22.28;58.22
45285;BME280;31026;43.780;25.948;2023-07-13T08:45:03;100736.31;;;22.31;57.03
45285;BME280;31026;43.780;25.948;2023-07-13T08:47:37;100740.50;;;22.25;56.18
45285;BME280;31026;43.780;25.948;2023-07-13T08:50:12;100734.47;;;22.13;55.95
45285;BME280;31026;43.780;25.948;2023-07-13T08:52:42;100721.50;;;22.09;55.76
45285;BME280;31026;43.780;25.948;2023-07-13T08:55:12;100721.94;;;22.48;58.94
45285;BME280;31026;43.780;25.948;2023-07-13T08:57:41;100721.47;;;22.87;60.46
45285;BME280;31026;43.780;25.948;2023-07-13T09:00:10;100720.72;;;23.11;62.57
45285;BME280;31026;43.780;25.948;2023-07-13T09:02:41;100708.63;;;23.23;63.60
45285;BME280;31026;43.780;25.948;2023-07-13T09:05:13;100696.69;;;23.42;64.62
45285;BME280;31026;43.780;25.948;2023-07-13T09:07:47;100699.72;;;23.39;64.44
45285;BME280;31026;43.780;25.948;2023-07-13T09:10:20;100714.50;;;23.11;63.66
45285;BME280;31026;43.780;25.948;2023-07-13T09:12:52;100696.13;;;23.06;63.51
45285;BME280;31026;43.780;25.948;2023-07-13T09:15:26;100713.81;;;23.09;63.46
45285;BME280;31026;43.780;25.948;2023-07-13T09:17:56;100688.81;;;22.98;64.15
45285;BME280;31026;43.780;25.948;2023-07-13T09:20:30;100697.28;;;23.12;65.36
45285;BME280;31026;43.780;25.948;2023-07-13T09:23:01;100713.88;;;23.33;65.83
45285;BME280;31026;43.780;25.948;2023-07-13T09:25:32;100695.00;;;23.41;66.38
45285;BME280;31026;43.780;25.948;2023-07-13T09:28:02;100699.56;;;23.49;67.13
45285;BME280;31026;43.780;25.948;2023-07-13T09:30:33;100695.34;;;23.55;67.62
45285;BME280;31026;43.780;25.948;2023-07-13T09:33:03;100722.19;;;23.56;67.90
45285;BME280;31026;43.780;25.948;2023-07-13T09:35:34;100716.28;;;23.61;68.43
45285;BME280;31026;43.780;25.948;2023-07-13T09:38:04;100712.91;;;23.42;68.71
45285;BME280;31026;43.780;25.948;2023-07-13T09:40:55;100712.50;;;23.21;68.82
45285;BME280;31026;43.780;25.948;2023-07-13T09:43:25;100701.22;;;23.26;68.47
45285;BME280;31026;43.780;25.948;2023-07-13T09:45:54;100721.81;;;23.35;68.38
45285;BME280;31026;43.780;25.948;2023-07-13T09:48:22;100719.75;;;23.20;68.34
45285;BME280;31026;43.780;25.948;2023-07-13T09:50:57;100719.06;;;23.10;68.27
45285;BME280;31026;43.780;25.948;2023-07-13T09:53:34;100715.03;;;23.14;67.67
45285;BME280;31026;43.780;25.948;2023-07-13T09:56:04;100711.44;;;23.06;68.68
45285;BME280;31026;43.780;25.948;2023-07-13T09:58:46;100725.94;;;23.05;68.88
45285;BME280;31026;43.780;25.948;2023-07-13T10:01:15;100716.38;;;23.18;68.68
45285;BME280;31026;43.780;25.948;2023-07-13T10:03:51;100720.28;;;23.24;68.56
45285;BME280;31026;43.780;25.948;2023-07-13T10:06:23;100710.50;;;23.39;69.09
45285;BME280;31026;43.780;25.948;2023-07-13T10:08:51;100715.28;;;23.54;69.26
45285;BME280;31026;43.780;25.948;2023-07-13T10:11:20;100708.03;;;23.62;69.65
45285;BME280;31026;43.780;25.948;2023-07-13T10:13:50;100709.53;;;23.57;71.29
45285;BME280;31026;43.780;25.948;2023-07-13T10:16:20;100689.97;;;23.63;70.75
45285;BME280;31026;43.780;25.948;2023-07-13T10:18:50;100709.22;;;23.68;71.54
45285;BME280;31026;43.780;25.948;2023-07-13T10:21:21;100708.69;;;23.73;72.08
45285;BME280;31026;43.780;25.948;2023-07-13T10:23:53;100706.16;;;23.71;72.17
45285;BME280;31026;43.780;25.948;2023-07-13T10:26:24;100701.44;;;23.57;72.45
45285;BME280;31026;43.780;25.948;2023-07-13T10:28:55;100711.22;;;23.50;72.00
45285;BME280;31026;43.780;25.948;2023-07-13T10:31:24;100702.94;;;23.59;72.45
45285;BME280;31026;43.780;25.948;2023-07-13T10:33:52;100706.16;;;23.55;72.95
45285;BME280;31026;43.780;25.948;2023-07-13T10:36:26;100702.78;;;23.69;72.72
45285;BME280;31026;43.780;25.948;2023-07-13T10:38:59;100689.13;;;23.71;71.16
45285;BME280;31026;43.780;25.948;2023-07-13T10:41:29;100702.09;;;23.59;72.02
45285;BME280;31026;43.780;25.948;2023-07-13T10:43:58;100695.34;;;23.71;71.88
45285;BME280;31026;43.780;25.948;2023-07-13T10:46:28;100672.78;;;23.64;72.54
45285;BME280;31026;43.780;25.948;2023-07-13T10:48:57;100691.31;;;23.59;72.78
45285;BME280;31026;43.780;25.948;2023-07-13T10:51:26;100687.63;;;23.60;72.47
45285;BME280;31026;43.780;25.948;2023-07-13T10:54:14;100663.66;;;23.57;71.96
45285;BME280;31026;43.780;25.948;2023-07-13T10:56:44;100661.97;;;23.56;72.26
45285;BME280;31026;43.780;25.948;2023-07-13T10:59:14;100648.63;;;23.62;72.38
45285;BME280;31026;43.780;25.948;2023-07-13T11:01:52;100627.03;;;23.62;72.70
45285;BME280;31026;43.780;25.948;2023-07-13T11:04:22;100642.25;;;23.63;71.77
45285;BME280;31026;43.780;25.948;2023-07-13T11:06:53;100645.47;;;23.84;71.71
45285;BME280;31026;43.780;25.948;2023-07-13T11:09:33;100649.84;;;23.85;71.94
45285;BME280;31026;43.780;25.948;2023-07-13T11:12:08;100630.25;;;23.91;71.70
45285;BME280;31026;43.780;25.948;2023-07-13T11:14:42;100635.00;;;23.80;71.83
45285;BME280;31026;43.780;25.948;2023-07-13T11:19:54;100628.22;;;23.85;71.62
45285;BME280;31026;43.780;25.948;2023-07-13T11:22:43;100624.16;;;23.89;71.94
45285;BME280;31026;43.780;25.948;2023-07-13T11:25:27;100628.22;;;23.85;71.40
45285;BME280;31026;43.780;25.948;2023-07-13T11:28:12;100627.88;;;23.79;71.73
45285;BME280;31026;43.780;25.948;2023-07-13T11:30:44;100625.50;;;23.76;70.30
45285;BME280;31026;43.780;25.948;2023-07-13T11:33:14;100616.41;;;23.77;68.40
45285;BME280;31026;43.780;25.948;2023-07-13T11:35:48;100600.19;;;23.69;68.54
45285;BME280;31026;43.780;25.948;2023-07-13T11:38:18;100611.00;;;23.69;68.37
45285;BME280;31026;43.780;25.948;2023-07-13T11:40:50;100603.25;;;23.58;68.10
45285;BME280;31026;43.780;25.948;2023-07-13T11:43:21;100591.63;;;23.66;67.32
45285;BME280;31026;43.780;25.948;2023-07-13T11:45:51;100587.91;;;23.58;67.32
45285;BME280;31026;43.780;25.948;2023-07-13T11:48:20;100587.72;;;23.76;66.86
45285;BME280;31026;43.780;25.948;2023-07-13T11:50:50;100584.34;;;23.82;66.35
45285;BME280;31026;43.780;25.948;2023-07-13T11:53:19;100567.16;;;23.84;66.90
45285;BME280;31026;43.780;25.948;2023-07-13T11:55:50;100585.19;;;23.67;66.76
45285;BME280;31026;43.780;25.948;2023-07-13T11:58:19;100583.34;;;23.84;66.15
45285;BME280;31026;43.780;25.948;2023-07-13T12:00:49;100570.50;;;23.94;65.67
45285;BME280;31026;43.780;25.948;2023-07-13T12:03:20;100580.09;;;23.96;65.70
45285;BME280;31026;43.780;25.948;2023-07-13T12:05:55;100569.84;;;23.84;66.25
45285;BME280;31026;43.780;25.948;2023-07-13T12:08:25;100588.34;;;24.03;65.91
45285;BME280;31026;43.780;25.948;2023-07-13T12:11:00;100562.69;;;23.99;65.89
45285;BME280;31026;43.780;25.948;2023-07-13T12:13:34;100555.63;;;23.98;66.23
45285;BME280;31026;43.780;25.948;2023-07-13T12:16:07;100571.47;;;24.01;66.11
45285;BME280;31026;43.780;25.948;2023-07-13T12:18:38;100561.06;;;23.90;66.03
45285;BME280;31026;43.780;25.948;2023-07-13T12:21:09;100562.91;;;23.97;66.45
45285;BME280;31026;43.780;25.948;2023-07-13T12:23:40;100576.38;;;24.06;66.30
45285;BME280;31026;43.780;25.948;2023-07-13T12:26:13;100563.06;;;23.96;66.21
45285;BME280;31026;43.780;25.948;2023-07-13T12:28:44;100551.59;;;23.94;66.04
45285;BME280;31026;43.780;25.948;2023-07-13T12:31:23;100558.31;;;23.98;66.17
45285;BME280;31026;43.780;25.948;2023-07-13T12:33:56;100556.66;;;23.89;66.80
45285;BME280;31026;43.780;25.948;2023-07-13T12:36:25;100563.09;;;23.79;66.35
45285;BME280;31026;43.780;25.948;2023-07-13T12:38:54;100549.56;;;23.71;66.19
45285;BME280;31026;43.780;25.948;2023-07-13T12:41:25;100557.88;;;23.78;65.81
45285;BME280;31026;43.780;25.948;2023-07-13T12:43:53;100534.91;;;23.82;65.31
45285;BME280;31026;43.780;25.948;2023-07-13T12:46:23;100550.06;;;23.91;64.92
45285;BME280;31026;43.780;25.948;2023-07-13T12:48:54;100562.03;;;23.97;64.45
45285;BME280;31026;43.780;25.948;2023-07-13T12:51:22;100558.31;;;24.06;64.23
45285;BME280;31026;43.780;25.948;2023-07-13T12:53:55;100541.78;;;23.93;64.08
45285;BME280;31026;43.780;25.948;2023-07-13T12:56:27;100541.69;;;23.78;64.64